Accueil
METAR-TAF:

METAR-TAF

Aéroports :

Aéroport d'East Midlands

Midlands de l'Est, Angleterre

latitude: 52-50N, longitude: 001-20W, altitude: 94 m

Observation

Le bulletin a été fait il y a 28 minutes, à 02:20 UTC
Vent 2 kt de direction variable
Température 10°C
Humidité 62%
Pression 1026 hPa
Visibilité 10 km ou plus
pas de nuages en-dessous de 1500 mètres et pas de cumulonimbus.

METAR: EGNX 080220Z VRB02KT CAVOK 10/03 Q1026

Heure: 03:48 (02:48 UTC)

Prévision

Le bulletin a été fait il y a 3 heures et 54 minutes, à 22:54 UTC
Prévision valable du 08 à 00 UTC au 08 à 24 UTC
Vent 4 kt de direction variable
Visibilité 10 km ou plus
Quelques nuages à une hauteur de 4000 ft
Probabilité 30%
du 08 à 02 UTC au 08 à 10 UTC
Visibilité: 6000 m
Probabilité 30% :
Temporairement
du 08 à 10 UTC au 08 à 19 UTC
Visibilité: 6000 m
averses de pluie

TAF: EGNX 072254Z 0800/0824 VRB04KT 9999 FEW040 PROB30 0802/0810 6000 PROB30 TEMPO 0810/0819 6000 SHRA

Observations et prévisions météorologiques de plus de 4000 aéroports (messages METAR et TAF).

Les stations disponibles sont représentées par des disques jaunes et rouges sur la carte.

Passer la souris dessus pour voir le nom de la station.

Cliquer dessus pour voir les observations et prévisions météorologiques.

Pour changer de carte: cliquez sur les boutons verts avec une croix noire pour zoomer, sur le bouton vert avec un tiret pour effectuer un zoom arrière, ou sur les flèches vertes pour les cartes adjacentes.


METAR-TAF: